Terminal Aerodrome Forecast
Issued by NWS

Home | Current Version | Previous Version | Text Only | Print | Product List | Glossary On
Versions: 1 2 3 4 5 6 7 8 9 10 11 12 13 14 15
000
FTUS46 KLOX 170500
TAFPMD
TAF
KPMD 170522Z 1706/1806 27007KT P6SM SKC
     FM171000 VRB03KT P6SM SKC
     FM172200 25012KT P6SM SCT100 SCT250
     FM180500 VRB03KT P6SM SCT100=

USA.gov is the U.S. government's official web portal to all federal, state and local government web resources and services.